sensor_id;sensor_type;location;lat;lon;timestamp;P1;durP1;ratioP1;P2;durP2;ratioP2
22644;SDS011;11489;50.834;6.752;2022-09-21T00:01:05;7.97;;;4.28;;
22644;SDS011;11489;50.834;6.752;2022-09-21T00:03:32;7.05;;;3.65;;
22644;SDS011;11489;50.834;6.752;2022-09-21T00:06:01;7.10;;;4.57;;
22644;SDS011;11489;50.834;6.752;2022-09-21T00:08:28;8.60;;;4.40;;
22644;SDS011;11489;50.834;6.752;2022-09-21T00:10:54;8.70;;;4.40;;
22644;SDS011;11489;50.834;6.752;2022-09-21T00:13:19;8.55;;;4.43;;
22644;SDS011;11489;50.834;6.752;2022-09-21T00:15:45;6.15;;;3.90;;
22644;SDS011;11489;50.834;6.752;2022-09-21T00:18:11;9.23;;;4.35;;
22644;SDS011;11489;50.834;6.752;2022-09-21T00:20:39;7.00;;;4.40;;
22644;SDS011;11489;50.834;6.752;2022-09-21T00:23:07;7.40;;;4.13;;
22644;SDS011;11489;50.834;6.752;2022-09-21T00:25:33;7.78;;;4.15;;
22644;SDS011;11489;50.834;6.752;2022-09-21T00:27:59;8.50;;;4.70;;
22644;SDS011;11489;50.834;6.752;2022-09-21T00:30:25;9.87;;;4.50;;
22644;SDS011;11489;50.834;6.752;2022-09-21T00:32:51;9.02;;;4.70;;
22644;SDS011;11489;50.834;6.752;2022-09-21T00:35:17;8.80;;;4.43;;
22644;SDS011;11489;50.834;6.752;2022-09-21T00:37:43;10.73;;;4.77;;
22644;SDS011;11489;50.834;6.752;2022-09-21T00:40:09;8.60;;;4.63;;
22644;SDS011;11489;50.834;6.752;2022-09-21T00:42:35;8.40;;;4.50;;
22644;SDS011;11489;50.834;6.752;2022-09-21T00:45:02;9.63;;;4.70;;
22644;SDS011;11489;50.834;6.752;2022-09-21T00:47:30;7.15;;;4.80;;
22644;SDS011;11489;50.834;6.752;2022-09-21T00:50:00;10.90;;;4.82;;
22644;SDS011;11489;50.834;6.752;2022-09-21T00:52:30;7.10;;;4.32;;
22644;SDS011;11489;50.834;6.752;2022-09-21T00:55:15;8.17;;;4.67;;
22644;SDS011;11489;50.834;6.752;2022-09-21T00:57:45;5.87;;;4.07;;
22644;SDS011;11489;50.834;6.752;2022-09-21T01:00:13;9.67;;;4.10;;
22644;SDS011;11489;50.834;6.752;2022-09-21T01:02:39;7.53;;;4.40;;
22644;SDS011;11489;50.834;6.752;2022-09-21T01:05:06;6.93;;;4.00;;
22644;SDS011;11489;50.834;6.752;2022-09-21T01:07:34;8.73;;;4.70;;
22644;SDS011;11489;50.834;6.752;2022-09-21T01:10:04;6.50;;;4.30;;
22644;SDS011;11489;50.834;6.752;2022-09-21T01:15:32;5.63;;;4.10;;
22644;SDS011;11489;50.834;6.752;2022-09-21T01:18:27;9.00;;;4.50;;
22644;SDS011;11489;50.834;6.752;2022-09-21T01:21:21;6.20;;;4.10;;
22644;SDS011;11489;50.834;6.752;2022-09-21T01:23:54;8.33;;;4.37;;
22644;SDS011;11489;50.834;6.752;2022-09-21T01:29:42;6.07;;;4.00;;
22644;SDS011;11489;50.834;6.752;2022-09-21T01:32:37;7.13;;;3.87;;
22644;SDS011;11489;50.834;6.752;2022-09-21T01:35:24;11.37;;;4.20;;
22644;SDS011;11489;50.834;6.752;2022-09-21T01:37:58;7.73;;;4.27;;
22644;SDS011;11489;50.834;6.752;2022-09-21T01:40:30;7.03;;;4.50;;
22644;SDS011;11489;50.834;6.752;2022-09-21T01:43:00;13.30;;;4.53;;
22644;SDS011;11489;50.834;6.752;2022-09-21T01:45:38;9.43;;;4.53;;
22644;SDS011;11489;50.834;6.752;2022-09-21T01:48:08;9.70;;;4.53;;
22644;SDS011;11489;50.834;6.752;2022-09-21T01:50:36;7.33;;;4.70;;
22644;SDS011;11489;50.834;6.752;2022-09-21T01:53:10;7.00;;;4.27;;
22644;SDS011;11489;50.834;6.752;2022-09-21T01:55:43;8.40;;;4.53;;
22644;SDS011;11489;50.834;6.752;2022-09-21T01:58:15;9.23;;;4.40;;
22644;SDS011;11489;50.834;6.752;2022-09-21T02:00:48;6.77;;;4.40;;
22644;SDS011;11489;50.834;6.752;2022-09-21T02:03:21;6.20;;;4.30;;
22644;SDS011;11489;50.834;6.752;2022-09-21T02:05:53;6.53;;;4.33;;
22644;SDS011;11489;50.834;6.752;2022-09-21T02:08:21;8.03;;;4.60;;
22644;SDS011;11489;50.834;6.752;2022-09-21T02:10:50;8.27;;;3.97;;
22644;SDS011;11489;50.834;6.752;2022-09-21T02:13:18;7.97;;;3.93;;
22644;SDS011;11489;50.834;6.752;2022-09-21T02:15:51;8.30;;;4.10;;
22644;SDS011;11489;50.834;6.752;2022-09-21T02:18:38;7.40;;;4.07;;
22644;SDS011;11489;50.834;6.752;2022-09-21T02:21:14;8.37;;;4.10;;
22644;SDS011;11489;50.834;6.752;2022-09-21T02:23:54;7.13;;;4.27;;
22644;SDS011;11489;50.834;6.752;2022-09-21T02:26:28;7.33;;;4.10;;
22644;SDS011;11489;50.834;6.752;2022-09-21T02:29:19;6.80;;;3.90;;
22644;SDS011;11489;50.834;6.752;2022-09-21T02:31:54;6.30;;;3.90;;
22644;SDS011;11489;50.834;6.752;2022-09-21T02:43:08;5.40;;;3.80;;
22644;SDS011;11489;50.834;6.752;2022-09-21T02:46:12;6.80;;;3.33;;
22644;SDS011;11489;50.834;6.752;2022-09-21T02:49:06;4.77;;;3.53;;
22644;SDS011;11489;50.834;6.752;2022-09-21T02:51:42;8.30;;;4.00;;
22644;SDS011;11489;50.834;6.752;2022-09-21T02:54:13;6.37;;;3.87;;
22644;SDS011;11489;50.834;6.752;2022-09-21T02:56:46;8.87;;;4.00;;
22644;SDS011;11489;50.834;6.752;2022-09-21T02:59:13;8.80;;;3.70;;
22644;SDS011;11489;50.834;6.752;2022-09-21T03:01:40;7.43;;;3.93;;
22644;SDS011;11489;50.834;6.752;2022-09-21T03:04:07;7.23;;;3.77;;
22644;SDS011;11489;50.834;6.752;2022-09-21T03:06:33;6.10;;;4.03;;
22644;SDS011;11489;50.834;6.752;2022-09-21T03:08:59;6.13;;;3.43;;
22644;SDS011;11489;50.834;6.752;2022-09-21T03:11:25;6.47;;;3.87;;
22644;SDS011;11489;50.834;6.752;2022-09-21T03:13:51;8.20;;;3.80;;
22644;SDS011;11489;50.834;6.752;2022-09-21T03:16:16;7.53;;;3.60;;
22644;SDS011;11489;50.834;6.752;2022-09-21T03:18:42;7.70;;;3.90;;
22644;SDS011;11489;50.834;6.752;2022-09-21T03:21:11;5.40;;;3.53;;
22644;SDS011;11489;50.834;6.752;2022-09-21T03:23:37;8.93;;;3.70;;
22644;SDS011;11489;50.834;6.752;2022-09-21T03:26:03;5.00;;;3.10;;
22644;SDS011;11489;50.834;6.752;2022-09-21T03:28:30;7.43;;;3.77;;
22644;SDS011;11489;50.834;6.752;2022-09-21T03:30:55;5.77;;;3.50;;
22644;SDS011;11489;50.834;6.752;2022-09-21T03:33:21;5.17;;;3.40;;
22644;SDS011;11489;50.834;6.752;2022-09-21T03:35:49;9.63;;;3.70;;
22644;SDS011;11489;50.834;6.752;2022-09-21T03:38:16;4.70;;;3.37;;
22644;SDS011;11489;50.834;6.752;2022-09-21T03:40:45;5.87;;;3.73;;
22644;SDS011;11489;50.834;6.752;2022-09-21T03:43:12;6.07;;;3.63;;
22644;SDS011;11489;50.834;6.752;2022-09-21T03:45:38;5.77;;;3.60;;
22644;SDS011;11489;50.834;6.752;2022-09-21T03:48:06;5.80;;;3.47;;
22644;SDS011;11489;50.834;6.752;2022-09-21T03:50:33;6.97;;;3.23;;
22644;SDS011;11489;50.834;6.752;2022-09-21T03:52:59;11.40;;;4.10;;
22644;SDS011;11489;50.834;6.752;2022-09-21T03:55:25;8.07;;;3.90;;
22644;SDS011;11489;50.834;6.752;2022-09-21T03:57:51;8.93;;;4.13;;
22644;SDS011;11489;50.834;6.752;2022-09-21T04:00:17;5.97;;;3.93;;
22644;SDS011;11489;50.834;6.752;2022-09-21T04:02:44;8.50;;;3.90;;
22644;SDS011;11489;50.834;6.752;2022-09-21T04:05:11;9.40;;;3.90;;
22644;SDS011;11489;50.834;6.752;2022-09-21T04:07:39;6.80;;;3.40;;
22644;SDS011;11489;50.834;6.752;2022-09-21T04:10:05;6.17;;;3.53;;
22644;SDS011;11489;50.834;6.752;2022-09-21T04:12:32;6.33;;;3.63;;
22644;SDS011;11489;50.834;6.752;2022-09-21T04:14:59;5.20;;;3.40;;
22644;SDS011;11489;50.834;6.752;2022-09-21T04:17:31;9.20;;;3.83;;
22644;SDS011;11489;50.834;6.752;2022-09-21T04:19:58;7.53;;;4.03;;
22644;SDS011;11489;50.834;6.752;2022-09-21T04:22:24;6.30;;;3.80;;
22644;SDS011;11489;50.834;6.752;2022-09-21T04:24:49;5.10;;;3.63;;
22644;SDS011;11489;50.834;6.752;2022-09-21T04:27:15;8.07;;;4.23;;
22644;SDS011;11489;50.834;6.752;2022-09-21T04:29:42;5.77;;;4.30;;
22644;SDS011;11489;50.834;6.752;2022-09-21T04:32:09;4.83;;;3.70;;
22644;SDS011;11489;50.834;6.752;2022-09-21T04:34:35;7.87;;;3.90;;
22644;SDS011;11489;50.834;6.752;2022-09-21T04:37:03;7.47;;;3.50;;
22644;SDS011;11489;50.834;6.752;2022-09-21T04:39:32;8.97;;;4.00;;
22644;SDS011;11489;50.834;6.752;2022-09-21T04:41:58;9.20;;;4.03;;
22644;SDS011;11489;50.834;6.752;2022-09-21T04:44:23;7.77;;;3.90;;
22644;SDS011;11489;50.834;6.752;2022-09-21T04:46:49;5.20;;;3.57;;
22644;SDS011;11489;50.834;6.752;2022-09-21T04:49:15;8.53;;;3.83;;
22644;SDS011;11489;50.834;6.752;2022-09-21T04:51:40;8.37;;;4.00;;
22644;SDS011;11489;50.834;6.752;2022-09-21T04:54:06;6.97;;;3.80;;
22644;SDS011;11489;50.834;6.752;2022-09-21T04:56:32;5.93;;;3.50;;
22644;SDS011;11489;50.834;6.752;2022-09-21T04:58:58;7.87;;;3.67;;
22644;SDS011;11489;50.834;6.752;2022-09-21T05:01:24;6.77;;;3.43;;
22644;SDS011;11489;50.834;6.752;2022-09-21T05:03:49;6.37;;;3.67;;
22644;SDS011;11489;50.834;6.752;2022-09-21T05:06:15;7.80;;;3.70;;
22644;SDS011;11489;50.834;6.752;2022-09-21T05:08:41;6.60;;;4.00;;
22644;SDS011;11489;50.834;6.752;2022-09-21T05:11:25;6.03;;;3.87;;
22644;SDS011;11489;50.834;6.752;2022-09-21T05:13:51;9.03;;;4.23;;
22644;SDS011;11489;50.834;6.752;2022-09-21T05:16:17;8.63;;;3.80;;
22644;SDS011;11489;50.834;6.752;2022-09-21T05:18:43;7.63;;;4.07;;
22644;SDS011;11489;50.834;6.752;2022-09-21T05:21:13;7.33;;;3.60;;
22644;SDS011;11489;50.834;6.752;2022-09-21T05:23:39;7.43;;;3.60;;
22644;SDS011;11489;50.834;6.752;2022-09-21T05:26:05;6.43;;;4.27;;
22644;SDS011;11489;50.834;6.752;2022-09-21T05:28:31;6.00;;;3.63;;
22644;SDS011;11489;50.834;6.752;2022-09-21T05:31:00;6.87;;;3.87;;
22644;SDS011;11489;50.834;6.752;2022-09-21T05:33:35;8.67;;;3.87;;
22644;SDS011;11489;50.834;6.752;2022-09-21T05:36:06;6.37;;;4.03;;
22644;SDS011;11489;50.834;6.752;2022-09-21T05:38:45;7.87;;;3.87;;
22644;SDS011;11489;50.834;6.752;2022-09-21T05:41:11;7.37;;;4.00;;
22644;SDS011;11489;50.834;6.752;2022-09-21T05:43:37;8.50;;;4.07;;
22644;SDS011;11489;50.834;6.752;2022-09-21T05:46:30;5.97;;;3.40;;
22644;SDS011;11489;50.834;6.752;2022-09-21T05:51:52;6.53;;;3.73;;
22644;SDS011;11489;50.834;6.752;2022-09-21T05:57:27;6.13;;;3.77;;
22644;SDS011;11489;50.834;6.752;2022-09-21T06:00:17;7.70;;;4.17;;
22644;SDS011;11489;50.834;6.752;2022-09-21T06:03:03;8.87;;;3.93;;
22644;SDS011;11489;50.834;6.752;2022-09-21T06:05:35;5.70;;;4.00;;
22644;SDS011;11489;50.834;6.752;2022-09-21T06:08:01;8.07;;;3.87;;
22644;SDS011;11489;50.834;6.752;2022-09-21T06:10:28;10.00;;;4.37;;
22644;SDS011;11489;50.834;6.752;2022-09-21T06:12:58;7.13;;;4.20;;
22644;SDS011;11489;50.834;6.752;2022-09-21T06:15:24;7.63;;;4.30;;
22644;SDS011;11489;50.834;6.752;2022-09-21T06:17:50;8.77;;;4.20;;
22644;SDS011;11489;50.834;6.752;2022-09-21T06:20:16;10.67;;;4.47;;
22644;SDS011;11489;50.834;6.752;2022-09-21T06:22:41;9.47;;;4.83;;
22644;SDS011;11489;50.834;6.752;2022-09-21T06:25:07;11.33;;;5.17;;
22644;SDS011;11489;50.834;6.752;2022-09-21T06:27:33;10.87;;;5.70;;
22644;SDS011;11489;50.834;6.752;2022-09-21T06:29:59;16.40;;;5.73;;
22644;SDS011;11489;50.834;6.752;2022-09-21T06:32:24;7.33;;;4.90;;
22644;SDS011;11489;50.834;6.752;2022-09-21T06:34:50;10.93;;;5.70;;
22644;SDS011;11489;50.834;6.752;2022-09-21T06:37:16;9.60;;;5.20;;
22644;SDS011;11489;50.834;6.752;2022-09-21T06:39:41;10.03;;;5.27;;
22644;SDS011;11489;50.834;6.752;2022-09-21T06:42:07;10.63;;;5.53;;
22644;SDS011;11489;50.834;6.752;2022-09-21T06:44:33;10.23;;;5.87;;
22644;SDS011;11489;50.834;6.752;2022-09-21T06:46:58;8.55;;;4.72;;
22644;SDS011;11489;50.834;6.752;2022-09-21T06:49:24;8.38;;;5.25;;
22644;SDS011;11489;50.834;6.752;2022-09-21T06:51:52;7.18;;;5.03;;
22644;SDS011;11489;50.834;6.752;2022-09-21T06:54:19;11.93;;;5.35;;
22644;SDS011;11489;50.834;6.752;2022-09-21T06:56:44;6.68;;;4.97;;
22644;SDS011;11489;50.834;6.752;2022-09-21T06:59:10;8.32;;;5.50;;
22644;SDS011;11489;50.834;6.752;2022-09-21T07:01:36;10.23;;;5.45;;
22644;SDS011;11489;50.834;6.752;2022-09-21T07:04:02;11.75;;;5.45;;
22644;SDS011;11489;50.834;6.752;2022-09-21T07:06:27;7.55;;;5.20;;
22644;SDS011;11489;50.834;6.752;2022-09-21T07:08:53;10.52;;;5.13;;
22644;SDS011;11489;50.834;6.752;2022-09-21T07:11:19;8.30;;;5.28;;
22644;SDS011;11489;50.834;6.752;2022-09-21T07:13:46;9.85;;;5.40;;
22644;SDS011;11489;50.834;6.752;2022-09-21T07:16:11;12.73;;;5.38;;
22644;SDS011;11489;50.834;6.752;2022-09-21T07:18:38;9.50;;;4.93;;
22644;SDS011;11489;50.834;6.752;2022-09-21T07:21:05;10.45;;;5.43;;
22644;SDS011;11489;50.834;6.752;2022-09-21T07:23:33;10.80;;;6.10;;
22644;SDS011;11489;50.834;6.752;2022-09-21T07:26:03;9.27;;;5.90;;
22644;SDS011;11489;50.834;6.752;2022-09-21T07:28:30;10.63;;;6.10;;
22644;SDS011;11489;50.834;6.752;2022-09-21T07:30:57;9.68;;;6.32;;
22644;SDS011;11489;50.834;6.752;2022-09-21T07:33:24;9.80;;;6.15;;
22644;SDS011;11489;50.834;6.752;2022-09-21T07:35:53;10.43;;;5.68;;
22644;SDS011;11489;50.834;6.752;2022-09-21T07:38:22;11.85;;;5.40;;
22644;SDS011;11489;50.834;6.752;2022-09-21T07:40:48;8.90;;;5.68;;
22644;SDS011;11489;50.834;6.752;2022-09-21T07:43:14;9.63;;;5.40;;
22644;SDS011;11489;50.834;6.752;2022-09-21T07:45:40;14.45;;;5.97;;
22644;SDS011;11489;50.834;6.752;2022-09-21T07:48:06;9.32;;;6.10;;
22644;SDS011;11489;50.834;6.752;2022-09-21T07:50:35;11.95;;;6.03;;
22644;SDS011;11489;50.834;6.752;2022-09-21T07:53:02;10.15;;;6.30;;
22644;SDS011;11489;50.834;6.752;2022-09-21T07:55:28;12.43;;;6.55;;
22644;SDS011;11489;50.834;6.752;2022-09-21T07:57:54;11.07;;;6.03;;
22644;SDS011;11489;50.834;6.752;2022-09-21T08:00:38;9.85;;;6.07;;
22644;SDS011;11489;50.834;6.752;2022-09-21T08:03:04;9.98;;;6.32;;
22644;SDS011;11489;50.834;6.752;2022-09-21T08:05:31;12.13;;;6.50;;
22644;SDS011;11489;50.834;6.752;2022-09-21T08:07:57;9.45;;;6.40;;
22644;SDS011;11489;50.834;6.752;2022-09-21T08:10:23;13.27;;;6.88;;
22644;SDS011;11489;50.834;6.752;2022-09-21T08:12:55;12.90;;;7.13;;
22644;SDS011;11489;50.834;6.752;2022-09-21T08:15:21;12.38;;;7.28;;
22644;SDS011;11489;50.834;6.752;2022-09-21T08:17:46;14.32;;;7.28;;
22644;SDS011;11489;50.834;6.752;2022-09-21T08:20:13;12.18;;;7.45;;
22644;SDS011;11489;50.834;6.752;2022-09-21T08:22:39;13.15;;;8.60;;
22644;SDS011;11489;50.834;6.752;2022-09-21T08:25:05;14.05;;;8.00;;
22644;SDS011;11489;50.834;6.752;2022-09-21T08:27:31;13.02;;;7.72;;
22644;SDS011;11489;50.834;6.752;2022-09-21T08:29:56;21.92;;;8.45;;
22644;SDS011;11489;50.834;6.752;2022-09-21T08:32:22;15.63;;;8.93;;
22644;SDS011;11489;50.834;6.752;2022-09-21T08:34:48;16.27;;;8.50;;
22644;SDS011;11489;50.834;6.752;2022-09-21T08:37:14;13.57;;;8.48;;
22644;SDS011;11489;50.834;6.752;2022-09-21T08:39:40;13.63;;;8.07;;
22644;SDS011;11489;50.834;6.752;2022-09-21T08:42:10;13.63;;;8.93;;
22644;SDS011;11489;50.834;6.752;2022-09-21T08:45:05;17.23;;;9.93;;
22644;SDS011;11489;50.834;6.752;2022-09-21T08:47:40;16.95;;;10.35;;
22644;SDS011;11489;50.834;6.752;2022-09-21T08:50:29;19.13;;;10.68;;
22644;SDS011;11489;50.834;6.752;2022-09-21T08:53:10;12.48;;;9.27;;
22644;SDS011;11489;50.834;6.752;2022-09-21T08:55:39;16.08;;;8.95;;
22644;SDS011;11489;50.834;6.752;2022-09-21T08:58:26;17.67;;;9.35;;
22644;SDS011;11489;50.834;6.752;2022-09-21T09:01:00;12.43;;;7.93;;
22644;SDS011;11489;50.834;6.752;2022-09-21T09:11:43;11.27;;;6.78;;
22644;SDS011;11489;50.834;6.752;2022-09-21T09:14:37;12.77;;;7.05;;
22644;SDS011;11489;50.834;6.752;2022-09-21T09:17:24;9.15;;;6.60;;
22644;SDS011;11489;50.834;6.752;2022-09-21T09:22:33;11.55;;;5.80;;
22644;SDS011;11489;50.834;6.752;2022-09-21T09:25:05;9.70;;;5.97;;
22644;SDS011;11489;50.834;6.752;2022-09-21T09:27:42;7.15;;;5.13;;
22644;SDS011;11489;50.834;6.752;2022-09-21T09:30:15;9.68;;;5.50;;
22644;SDS011;11489;50.834;6.752;2022-09-21T09:37:50;8.27;;;4.85;;
22644;SDS011;11489;50.834;6.752;2022-09-21T09:40:30;8.30;;;4.70;;
22644;SDS011;11489;50.834;6.752;2022-09-21T09:49:27;9.43;;;4.03;;
22644;SDS011;11489;50.834;6.752;2022-09-21T09:52:19;6.57;;;3.53;;
22644;SDS011;11489;50.834;6.752;2022-09-21T09:54:46;7.00;;;3.80;;
22644;SDS011;11489;50.834;6.752;2022-09-21T09:57:12;4.70;;;3.38;;
22644;SDS011;11489;50.834;6.752;2022-09-21T09:59:43;4.57;;;2.80;;
22644;SDS011;11489;50.834;6.752;2022-09-21T10:04:53;5.32;;;2.40;;
22644;SDS011;11489;50.834;6.752;2022-09-21T10:09:59;4.45;;;2.00;;
22644;SDS011;11489;50.834;6.752;2022-09-21T10:12:25;3.05;;;1.70;;
22644;SDS011;11489;50.834;6.752;2022-09-21T10:14:52;2.70;;;1.48;;
22644;SDS011;11489;50.834;6.752;2022-09-21T10:17:20;2.33;;;1.50;;
22644;SDS011;11489;50.834;6.752;2022-09-21T10:19:49;2.38;;;1.20;;
22644;SDS011;11489;50.834;6.752;2022-09-21T10:22:27;4.13;;;1.23;;
22644;SDS011;11489;50.834;6.752;2022-09-21T10:24:54;1.60;;;0.93;;
22644;SDS011;11489;50.834;6.752;2022-09-21T10:29:53;3.20;;;1.15;;
22644;SDS011;11489;50.834;6.752;2022-09-21T10:32:28;3.20;;;1.10;;
22644;SDS011;11489;50.834;6.752;2022-09-21T10:37:33;2.85;;;1.50;;
22644;SDS011;11489;50.834;6.752;2022-09-21T10:40:02;4.10;;;1.30;;
22644;SDS011;11489;50.834;6.752;2022-09-21T10:42:30;2.20;;;1.20;;
22644;SDS011;11489;50.834;6.752;2022-09-21T10:45:23;2.75;;;1.00;;
22644;SDS011;11489;50.834;6.752;2022-09-21T10:47:49;2.75;;;1.00;;
22644;SDS011;11489;50.834;6.752;2022-09-21T10:55:36;2.80;;;1.20;;
22644;SDS011;11489;50.834;6.752;2022-09-21T10:58:07;2.88;;;1.30;;
22644;SDS011;11489;50.834;6.752;2022-09-21T11:00:39;2.22;;;1.10;;
22644;SDS011;11489;50.834;6.752;2022-09-21T11:06:15;1.98;;;1.27;;
22644;SDS011;11489;50.834;6.752;2022-09-21T11:14:13;2.60;;;1.15;;
22644;SDS011;11489;50.834;6.752;2022-09-21T11:16:57;3.40;;;1.10;;
22644;SDS011;11489;50.834;6.752;2022-09-21T11:22:21;2.58;;;1.05;;
22644;SDS011;11489;50.834;6.752;2022-09-21T11:28:12;2.85;;;1.35;;
22644;SDS011;11489;50.834;6.752;2022-09-21T11:30:45;4.03;;;1.40;;
22644;SDS011;11489;50.834;6.752;2022-09-21T11:44:43;3.20;;;0.80;;
22644;SDS011;11489;50.834;6.752;2022-09-21T11:53:54;2.78;;;1.00;;
22644;SDS011;11489;50.834;6.752;2022-09-21T12:04:30;2.45;;;0.90;;
22644;SDS011;11489;50.834;6.752;2022-09-21T12:07:20;4.53;;;2.10;;
22644;SDS011;11489;50.834;6.752;2022-09-21T12:12:52;5.70;;;2.15;;
22644;SDS011;11489;50.834;6.752;2022-09-21T12:15:25;6.78;;;1.30;;
22644;SDS011;11489;50.834;6.752;2022-09-21T12:18:12;1.90;;;1.05;;
22644;SDS011;11489;50.834;6.752;2022-09-21T12:20:46;2.90;;;0.90;;
22644;SDS011;11489;50.834;6.752;2022-09-21T12:26:06;1.48;;;0.73;;
22644;SDS011;11489;50.834;6.752;2022-09-21T12:28:41;2.70;;;1.05;;
22644;SDS011;11489;50.834;6.752;2022-09-21T12:34:08;5.00;;;1.25;;
22644;SDS011;11489;50.834;6.752;2022-09-21T12:36:41;1.70;;;1.00;;
22644;SDS011;11489;50.834;6.752;2022-09-21T12:39:19;1.67;;;1.05;;
22644;SDS011;11489;50.834;6.752;2022-09-21T12:41:56;3.47;;;1.10;;
22644;SDS011;11489;50.834;6.752;2022-09-21T12:44:46;2.80;;;1.30;;
22644;SDS011;11489;50.834;6.752;2022-09-21T12:49:52;4.47;;;1.30;;
22644;SDS011;11489;50.834;6.752;2022-09-21T12:52:24;4.40;;;1.55;;
22644;SDS011;11489;50.834;6.752;2022-09-21T13:00:13;4.30;;;1.25;;
22644;SDS011;11489;50.834;6.752;2022-09-21T13:02:45;1.92;;;1.30;;
22644;SDS011;11489;50.834;6.752;2022-09-21T13:05:45;2.80;;;1.30;;
22644;SDS011;11489;50.834;6.752;2022-09-21T13:08:16;4.93;;;1.42;;
22644;SDS011;11489;50.834;6.752;2022-09-21T13:13:47;2.22;;;1.02;;
22644;SDS011;11489;50.834;6.752;2022-09-21T13:16:36;2.53;;;0.75;;
22644;SDS011;11489;50.834;6.752;2022-09-21T13:21:38;3.00;;;1.05;;
22644;SDS011;11489;50.834;6.752;2022-09-21T13:24:05;2.17;;;0.90;;
22644;SDS011;11489;50.834;6.752;2022-09-21T13:26:55;3.08;;;1.17;;
22644;SDS011;11489;50.834;6.752;2022-09-21T13:29:29;2.13;;;0.82;;
22644;SDS011;11489;50.834;6.752;2022-09-21T13:34:35;1.58;;;0.90;;
22644;SDS011;11489;50.834;6.752;2022-09-21T13:39:35;3.20;;;0.95;;
22644;SDS011;11489;50.834;6.752;2022-09-21T13:47:43;0.80;;;0.60;;
22644;SDS011;11489;50.834;6.752;2022-09-21T13:53:05;2.33;;;0.68;;
22644;SDS011;11489;50.834;6.752;2022-09-21T13:55:50;3.45;;;0.68;;
22644;SDS011;11489;50.834;6.752;2022-09-21T13:58:19;1.50;;;0.70;;
22644;SDS011;11489;50.834;6.752;2022-09-21T14:00:50;1.83;;;0.82;;
22644;SDS011;11489;50.834;6.752;2022-09-21T14:06:04;1.63;;;0.65;;
22644;SDS011;11489;50.834;6.752;2022-09-21T14:08:32;2.25;;;0.70;;
22644;SDS011;11489;50.834;6.752;2022-09-21T14:11:03;1.92;;;0.68;;
22644;SDS011;11489;50.834;6.752;2022-09-21T14:13:36;2.50;;;0.70;;
22644;SDS011;11489;50.834;6.752;2022-09-21T14:16:24;1.05;;;0.55;;
22644;SDS011;11489;50.834;6.752;2022-09-21T14:18:59;1.35;;;0.63;;
22644;SDS011;11489;50.834;6.752;2022-09-21T14:21:25;2.35;;;1.08;;
22644;SDS011;11489;50.834;6.752;2022-09-21T14:26:34;2.38;;;0.75;;
22644;SDS011;11489;50.834;6.752;2022-09-21T14:32:00;1.17;;;0.63;;
22644;SDS011;11489;50.834;6.752;2022-09-21T14:34:33;4.40;;;0.95;;
22644;SDS011;11489;50.834;6.752;2022-09-21T14:37:05;1.13;;;0.70;;
22644;SDS011;11489;50.834;6.752;2022-09-21T14:39:46;2.65;;;0.70;;
22644;SDS011;11489;50.834;6.752;2022-09-21T14:42:14;2.05;;;0.70;;
22644;SDS011;11489;50.834;6.752;2022-09-21T14:44:43;1.73;;;0.80;;
22644;SDS011;11489;50.834;6.752;2022-09-21T14:49:57;2.35;;;0.73;;
22644;SDS011;11489;50.834;6.752;2022-09-21T14:55:21;0.90;;;0.70;;
22644;SDS011;11489;50.834;6.752;2022-09-21T15:00:48;2.33;;;1.00;;
22644;SDS011;11489;50.834;6.752;2022-09-21T15:06:29;1.85;;;0.77;;
22644;SDS011;11489;50.834;6.752;2022-09-21T15:09:49;1.30;;;0.70;;
22644;SDS011;11489;50.834;6.752;2022-09-21T15:12:43;1.38;;;0.70;;
22644;SDS011;11489;50.834;6.752;2022-09-21T15:18:33;0.90;;;0.52;;
22644;SDS011;11489;50.834;6.752;2022-09-21T15:21:15;1.25;;;0.60;;
22644;SDS011;11489;50.834;6.752;2022-09-21T15:23:51;0.60;;;0.50;;
22644;SDS011;11489;50.834;6.752;2022-09-21T15:26:19;2.13;;;1.05;;
22644;SDS011;11489;50.834;6.752;2022-09-21T15:28:58;1.60;;;0.85;;
22644;SDS011;11489;50.834;6.752;2022-09-21T15:31:32;1.42;;;0.73;;
22644;SDS011;11489;50.834;6.752;2022-09-21T15:33:59;3.25;;;0.70;;
22644;SDS011;11489;50.834;6.752;2022-09-21T15:36:28;2.17;;;0.70;;
22644;SDS011;11489;50.834;6.752;2022-09-21T15:38:55;0.98;;;0.50;;
22644;SDS011;11489;50.834;6.752;2022-09-21T15:46:51;0.60;;;0.40;;
22644;SDS011;11489;50.834;6.752;2022-09-21T15:49:24;0.65;;;0.43;;
22644;SDS011;11489;50.834;6.752;2022-09-21T15:51:59;1.73;;;0.45;;
22644;SDS011;11489;50.834;6.752;2022-09-21T15:54:34;0.90;;;0.47;;
22644;SDS011;11489;50.834;6.752;2022-09-21T15:57:20;0.73;;;0.40;;
22644;SDS011;11489;50.834;6.752;2022-09-21T16:02:38;1.63;;;0.60;;
22644;SDS011;11489;50.834;6.752;2022-09-21T16:05:06;0.88;;;0.40;;
22644;SDS011;11489;50.834;6.752;2022-09-21T16:07:40;1.00;;;0.40;;
22644;SDS011;11489;50.834;6.752;2022-09-21T16:10:39;0.50;;;0.50;;
22644;SDS011;11489;50.834;6.752;2022-09-21T16:13:03;1.17;;;0.40;;
22644;SDS011;11489;50.834;6.752;2022-09-21T16:15:58;1.10;;;0.57;;
22644;SDS011;11489;50.834;6.752;2022-09-21T16:18:29;2.95;;;0.45;;
22644;SDS011;11489;50.834;6.752;2022-09-21T16:21:06;0.30;;;0.30;;
22644;SDS011;11489;50.834;6.752;2022-09-21T16:23:50;0.50;;;0.32;;
22644;SDS011;11489;50.834;6.752;2022-09-21T16:26:26;1.60;;;0.70;;
22644;SDS011;11489;50.834;6.752;2022-09-21T16:31:45;1.50;;;0.77;;
22644;SDS011;11489;50.834;6.752;2022-09-21T16:34:18;1.55;;;0.90;;
22644;SDS011;11489;50.834;6.752;2022-09-21T16:36:57;2.78;;;1.00;;
22644;SDS011;11489;50.834;6.752;2022-09-21T16:39:23;1.88;;;0.90;;
22644;SDS011;11489;50.834;6.752;2022-09-21T16:41:50;3.35;;;0.90;;
22644;SDS011;11489;50.834;6.752;2022-09-21T16:44:19;3.63;;;1.00;;
22644;SDS011;11489;50.834;6.752;2022-09-21T16:46:47;2.28;;;0.90;;
22644;SDS011;11489;50.834;6.752;2022-09-21T16:49:19;2.03;;;1.30;;
22644;SDS011;11489;50.834;6.752;2022-09-21T16:51:47;4.13;;;1.20;;
22644;SDS011;11489;50.834;6.752;2022-09-21T16:54:17;2.13;;;1.17;;
22644;SDS011;11489;50.834;6.752;2022-09-21T16:56:49;3.70;;;2.13;;
22644;SDS011;11489;50.834;6.752;2022-09-21T16:59:16;3.00;;;1.70;;
22644;SDS011;11489;50.834;6.752;2022-09-21T17:01:51;3.08;;;1.27;;
22644;SDS011;11489;50.834;6.752;2022-09-21T17:04:19;3.20;;;1.20;;
22644;SDS011;11489;50.834;6.752;2022-09-21T17:06:46;6.05;;;1.20;;
22644;SDS011;11489;50.834;6.752;2022-09-21T17:12:12;2.25;;;0.90;;
22644;SDS011;11489;50.834;6.752;2022-09-21T17:14:39;6.22;;;1.00;;
22644;SDS011;11489;50.834;6.752;2022-09-21T17:17:18;4.13;;;0.90;;
22644;SDS011;11489;50.834;6.752;2022-09-21T17:19:44;2.30;;;0.90;;
22644;SDS011;11489;50.834;6.752;2022-09-21T17:22:11;1.75;;;1.00;;
22644;SDS011;11489;50.834;6.752;2022-09-21T17:24:44;2.90;;;1.15;;
22644;SDS011;11489;50.834;6.752;2022-09-21T17:27:11;3.63;;;1.30;;
22644;SDS011;11489;50.834;6.752;2022-09-21T17:29:38;4.03;;;1.30;;
22644;SDS011;11489;50.834;6.752;2022-09-21T17:32:11;2.42;;;1.13;;
22644;SDS011;11489;50.834;6.752;2022-09-21T17:34:38;3.80;;;1.35;;
22644;SDS011;11489;50.834;6.752;2022-09-21T17:37:05;4.57;;;1.90;;
22644;SDS011;11489;50.834;6.752;2022-09-21T17:39:31;3.25;;;1.50;;
22644;SDS011;11489;50.834;6.752;2022-09-21T17:42:14;4.28;;;1.55;;
22644;SDS011;11489;50.834;6.752;2022-09-21T17:44:56;3.58;;;1.40;;
22644;SDS011;11489;50.834;6.752;2022-09-21T17:47:26;3.10;;;1.40;;
22644;SDS011;11489;50.834;6.752;2022-09-21T17:52:38;3.40;;;1.60;;
22644;SDS011;11489;50.834;6.752;2022-09-21T17:55:24;8.50;;;1.70;;
22644;SDS011;11489;50.834;6.752;2022-09-21T18:00:34;2.97;;;1.73;;
22644;SDS011;11489;50.834;6.752;2022-09-21T18:03:20;3.25;;;2.40;;
22644;SDS011;11489;50.834;6.752;2022-09-21T18:05:48;6.03;;;2.25;;
22644;SDS011;11489;50.834;6.752;2022-09-21T18:08:15;6.70;;;2.35;;